createdAt,value
2023-03-16T00:03:37.488Z,23.7
2023-03-16T00:08:55.784Z,23.8
2023-03-16T00:14:14.539Z,23.8
2023-03-16T00:19:33.044Z,23.8
2023-03-16T00:24:51.593Z,23.8
2023-03-16T00:30:09.789Z,23.8
2023-03-16T00:35:27.990Z,23.8
2023-03-16T00:40:45.940Z,23.8
2023-03-16T00:46:04.501Z,23.8
2023-03-16T00:51:22.540Z,23.8
2023-03-16T00:56:41.076Z,23.8
2023-03-16T01:01:58.982Z,23.8
2023-03-16T01:07:17.178Z,23.8
2023-03-16T01:12:35.415Z,23.8
2023-03-16T01:17:54.152Z,23.8
2023-03-16T01:23:12.070Z,23.8
2023-03-16T01:28:30.632Z,23.8
2023-03-16T01:33:48.826Z,23.8
2023-03-16T01:39:06.798Z,23.8
2023-03-16T01:44:24.751Z,23.8
2023-03-16T01:49:42.949Z,23.9
2023-03-16T01:55:01.439Z,23.8
2023-03-16T02:00:20.031Z,23.9
2023-03-16T02:05:38.617Z,23.9
2023-03-16T02:10:57.413Z,23.8
2023-03-16T02:16:16.376Z,23.9
2023-03-16T02:21:35.048Z,23.9
2023-03-16T02:26:53.255Z,23.9
2023-03-16T02:32:11.780Z,23.8
2023-03-16T02:37:30.252Z,23.8
2023-03-16T02:42:48.728Z,23.8
2023-03-16T02:48:06.983Z,23.8
2023-03-16T02:53:25.727Z,23.8
2023-03-16T02:58:44.202Z,23.8
2023-03-16T03:04:02.474Z,23.8
2023-03-16T03:09:20.982Z,23.8
2023-03-16T03:14:39.728Z,23.8
2023-03-16T03:19:57.982Z,23.8
2023-03-16T03:25:16.463Z,23.8
2023-03-16T03:30:34.933Z,23.8
2023-03-16T03:35:37.788Z,23.8
2023-03-16T03:40:56.213Z,23.8
2023-03-16T03:46:14.733Z,23.8
2023-03-16T03:51:32.985Z,23.8
2023-03-16T03:56:51.455Z,23.8
2023-03-16T04:02:16.061Z,23.8
2023-03-16T04:07:34.804Z,23.8
2023-03-16T04:12:53.549Z,23.8
2023-03-16T04:18:12.326Z,23.8
2023-03-16T04:23:31.125Z,23.8
2023-03-16T04:28:49.301Z,23.8
2023-03-16T04:34:07.816Z,23.9
2023-03-16T04:39:26.054Z,23.9
2023-03-16T04:44:44.562Z,23.9
2023-03-16T04:50:02.869Z,23.9
2023-03-16T04:55:21.378Z,23.9
2023-03-16T05:00:39.568Z,23.9
2023-03-16T05:05:58.502Z,23.9
2023-03-16T05:11:16.975Z,23.9
2023-03-16T05:16:34.894Z,23.9
2023-03-16T05:21:53.082Z,23.9
2023-03-16T05:27:11.611Z,23.9
2023-03-16T05:32:30.036Z,23.9
2023-03-16T05:37:48.574Z,23.7
2023-03-16T05:43:06.550Z,23.5
2023-03-16T05:48:24.748Z,23.5
2023-03-16T05:53:43.494Z,23.4
2023-03-16T05:59:01.769Z,23.5
2023-03-16T06:04:20.336Z,23.5
2023-03-16T06:09:38.425Z,23.5
2023-03-16T06:14:57.242Z,23.5
2023-03-16T06:20:15.662Z,23.5
2023-03-16T06:25:34.159Z,23.5
2023-03-16T06:30:52.734Z,23.5
2023-03-16T06:36:11.363Z,23.5
2023-03-16T06:41:29.886Z,23.5
2023-03-16T06:46:48.409Z,23.5
2023-03-16T06:51:51.521Z,23.5
2023-03-16T06:57:10.019Z,23.5
2023-03-16T07:02:28.828Z,23.5
2023-03-16T07:07:46.998Z,23.5
2023-03-16T07:13:05.490Z,23.5
2023-03-16T07:18:23.838Z,23.5
2023-03-16T07:23:42.068Z,23.5
2023-03-16T07:29:00.581Z,23.5
2023-03-16T07:34:19.470Z,23.5
2023-03-16T07:39:37.830Z,23.5
2023-03-16T07:44:56.121Z,23.5
2023-03-16T07:50:14.946Z,23.5
2023-03-16T07:55:33.708Z,23.5
2023-03-16T08:00:51.919Z,23.5
2023-03-16T08:06:10.167Z,23.5
2023-03-16T08:11:28.989Z,23.5
2023-03-16T08:16:47.786Z,23.5
2023-03-16T08:22:06.624Z,23.5
2023-03-16T08:27:25.121Z,23.5
2023-03-16T08:32:43.734Z,23.5
2023-03-16T08:38:01.898Z,23.5
2023-03-16T08:43:19.821Z,23.5
2023-03-16T08:48:38.005Z,23.5
2023-03-16T08:53:56.822Z,23.5
2023-03-16T08:59:30.386Z,23.5
2023-03-16T09:04:48.892Z,23.5
2023-03-16T09:10:07.449Z,23.5
2023-03-16T09:15:26.022Z,23.5
2023-03-16T09:20:45.583Z,23.5
2023-03-16T09:26:04.105Z,23.5
2023-03-16T09:31:22.708Z,23.5
2023-03-16T09:36:41.620Z,23.5
2023-03-16T09:42:00.293Z,23.5
2023-03-16T09:47:18.299Z,23.5
2023-03-16T09:52:36.655Z,23.5
2023-03-16T09:57:54.599Z,23.5
2023-03-16T10:03:12.787Z,23.5
2023-03-16T10:08:30.969Z,23.5
2023-03-16T10:13:49.778Z,23.5
2023-03-16T10:19:08.311Z,23.5
2023-03-16T10:24:27.151Z,23.5
2023-03-16T10:29:45.840Z,23.5
2023-03-16T10:35:04.404Z,23.5
2023-03-16T10:40:07.251Z,23.5
2023-03-16T10:45:25.260Z,23.5
2023-03-16T10:50:43.805Z,23.5
2023-03-16T10:56:02.058Z,23.5
2023-03-16T11:01:20.752Z,23.5
2023-03-16T11:06:23.617Z,23.5
2023-03-16T11:11:41.813Z,23.5
2023-03-16T11:17:00.549Z,23.5
2023-03-16T11:22:19.224Z,23.5
2023-03-16T11:27:37.169Z,23.5
2023-03-16T11:32:55.833Z,23.5
2023-03-16T11:38:15.686Z,23.5
2023-03-16T11:43:34.162Z,23.5
2023-03-16T11:48:52.703Z,23.5
2023-03-16T11:54:10.607Z,23.5
2023-03-16T11:59:13.455Z,23.5
2023-03-16T12:04:32.091Z,23.5
2023-03-16T12:09:50.976Z,23.5
2023-03-16T12:15:09.211Z,23.5
2023-03-16T12:20:27.442Z,23.5
2023-03-16T12:25:45.910Z,23.5
2023-03-16T12:31:04.290Z,23.5
2023-03-16T12:36:22.612Z,23.5
2023-03-16T12:41:40.790Z,23.5
2023-03-16T12:46:59.563Z,23.5
2023-03-16T12:52:17.537Z,23.5
2023-03-16T12:57:38.629Z,23.5
2023-03-16T13:02:56.935Z,23.5
2023-03-16T13:08:14.899Z,23.5
2023-03-16T13:13:33.369Z,23.5
2023-03-16T13:18:52.153Z,23.5
2023-03-16T13:24:16.301Z,23.5
2023-03-16T13:29:38.534Z,23.5
2023-03-16T13:34:57.493Z,23.5
2023-03-16T13:40:16.119Z,23.4
2023-03-16T13:45:35.001Z,23.4
2023-03-16T13:50:53.490Z,23.5
2023-03-16T13:56:12.012Z,23.5
2023-03-16T14:01:30.109Z,23.4
2023-03-16T14:06:33.105Z,23.5
2023-03-16T14:11:52.208Z,23.4
2023-03-16T14:17:10.670Z,23.4
2023-03-16T14:22:29.417Z,23.4
2023-03-16T14:27:31.800Z,23.4
2023-03-16T14:32:50.302Z,23.4
2023-03-16T14:38:08.557Z,23.4
2023-03-16T14:43:27.407Z,23.4
2023-03-16T14:48:46.020Z,23.4
2023-03-16T14:54:04.488Z,23.4
2023-03-16T14:59:23.266Z,23.4
2023-03-16T15:04:41.538Z,23.4
2023-03-16T15:10:00.286Z,23.4
2023-03-16T15:15:19.112Z,23.4
2023-03-16T15:20:37.588Z,23.4
2023-03-16T15:25:55.793Z,23.4
2023-03-16T15:31:14.154Z,23.4
2023-03-16T15:36:32.847Z,23.4
2023-03-16T15:41:51.035Z,23.4
2023-03-16T15:47:09.287Z,23.4
2023-03-16T15:52:27.795Z,23.4
2023-03-16T15:57:51.536Z,23.4
2023-03-16T16:02:54.428Z,23.4
2023-03-16T16:08:12.887Z,23.4
2023-03-16T16:13:47.029Z,23.4
2023-03-16T16:19:06.537Z,23.4
2023-03-16T16:24:24.914Z,23.4
2023-03-16T16:29:43.742Z,23.4
2023-03-16T16:35:05.499Z,23.4
2023-03-16T16:40:24.079Z,23.4
2023-03-16T16:45:42.696Z,23.4
2023-03-16T16:51:00.691Z,23.4
2023-03-16T16:56:18.883Z,23.3
2023-03-16T17:01:37.119Z,23.3
2023-03-16T17:06:55.884Z,23.3
2023-03-16T17:12:13.864Z,23.3
2023-03-16T17:17:32.356Z,23.3
2023-03-16T17:22:50.629Z,23.3
2023-03-16T17:28:09.106Z,23.3
2023-03-16T17:33:27.320Z,23.4
2023-03-16T17:38:45.854Z,23.4
2023-03-16T17:43:48.141Z,23.4
2023-03-16T17:49:07.030Z,23.4
2023-03-16T17:54:25.872Z,23.4
2023-03-16T17:59:44.348Z,23.4
2023-03-16T18:05:02.902Z,23.3
2023-03-16T18:10:24.563Z,23.3
2023-03-16T18:15:42.767Z,23.3
2023-03-16T18:21:01.522Z,23.3
2023-03-16T18:26:20.046Z,23.3
2023-03-16T18:31:39.113Z,23.3
2023-03-16T18:36:57.308Z,23.3
2023-03-16T18:42:15.796Z,23.1
2023-03-16T18:47:34.552Z,23.1
2023-03-16T18:52:52.782Z,23.1
2023-03-16T18:58:11.142Z,23.1
2023-03-16T19:03:29.699Z,23.1
2023-03-16T19:08:48.340Z,23.1
2023-03-16T19:14:06.543Z,23
2023-03-16T19:19:25.153Z,23.1
2023-03-16T19:24:43.601Z,23.1
2023-03-16T19:30:02.140Z,23.1
2023-03-16T19:35:20.914Z,23.1
2023-03-16T19:40:39.461Z,23.1
2023-03-16T19:45:57.618Z,23.1
2023-03-16T19:51:16.063Z,23.1
2023-03-16T19:56:33.962Z,23.1
2023-03-16T20:01:52.218Z,23.1
2023-03-16T20:07:11.004Z,23.1
2023-03-16T20:12:29.237Z,23.1
2023-03-16T20:17:47.550Z,23.1
2023-03-16T20:23:06.562Z,23.1
2023-03-16T20:28:25.196Z,23.1
2023-03-16T20:33:44.014Z,23.1
2023-03-16T20:39:02.235Z,23.1
2023-03-16T20:44:20.506Z,23.1
2023-03-16T20:49:39.019Z,23.2
2023-03-16T20:54:57.526Z,23.2
2023-03-16T21:00:16.250Z,23.2
2023-03-16T21:05:34.890Z,23.2
2023-03-16T21:10:54.467Z,23.2
2023-03-16T21:16:13.084Z,23.1
2023-03-16T21:21:31.588Z,23.1
2023-03-16T21:26:49.887Z,23.2
2023-03-16T21:32:07.814Z,23.2
2023-03-16T21:37:26.336Z,23.2
2023-03-16T21:42:44.813Z,23.2
2023-03-16T21:48:02.988Z,23.2
2023-03-16T21:53:21.213Z,23.2
2023-03-16T21:58:39.681Z,23.2
2023-03-16T22:03:57.944Z,23.2
2023-03-16T22:09:16.439Z,23.2
2023-03-16T22:14:34.631Z,23.2
2023-03-16T22:19:52.849Z,23.2
2023-03-16T22:25:11.401Z,23.2
2023-03-16T22:30:29.853Z,23.2
2023-03-16T22:35:48.090Z,23.2
2023-03-16T22:41:07.254Z,23.2
2023-03-16T22:46:25.841Z,23.2
2023-03-16T22:51:44.335Z,23.2
2023-03-16T22:57:02.566Z,23.2
2023-03-16T23:02:21.104Z,23.2
2023-03-16T23:07:39.854Z,23.2
2023-03-16T23:12:58.649Z,23.2
2023-03-16T23:18:16.856Z,23.2
2023-03-16T23:23:35.332Z,23.2
2023-03-16T23:28:53.579Z,23.2
2023-03-16T23:34:11.964Z,23.2
2023-03-16T23:39:30.476Z,23.2
2023-03-16T23:44:48.521Z,23.2
2023-03-16T23:50:07.005Z,23.2
2023-03-16T23:55:25.766Z,23.2
